Terminal Aerodrome Forecast
Issued by NWS

Home | Current Version | Previous Version | Text Only | Print | Product List | Glossary On
Versions: 1 2 3 4 5 6 7 8 9 10 11 12 13
000
FTUS45 KRIW 222300
TAFCPR
TAF
KCPR 222321Z 2300/2324 24011G21KT P6SM SKC
     FM230600 22015KT P6SM SCT100 BKN250
     FM231200 22017G27KT P6SM SCT100 BKN200
     FM231800 22021G31KT P6SM SCT100 BKN200=

USA.gov is the U.S. government's official web portal to all federal, state and local government web resources and services.